<?xml version="1.0" encoding="UTF-8" standalone="no" ?>
<gpx xmlns="http://www.topografix.com/GPX/1/1" xmlns:xsi="http://www.w3.org/2001/XMLSchema-instance" xsi:schemaLocation="http://www.topografix.com/GPX/1/1 http://www.topografix.com/GPX/1/1/gpx.xsd" version="1.1" creator="VisuGPX - https://www.visugpx.com">
  <metadata>
    <name>83-Reconnaissance vers le Grand Brouis</name>
    <desc><![CDATA[Reconnaissance vers le Grand Brouis]]></desc>
  </metadata>
  <wpt lat="43.75295" lon="6.60251">
    <ele>1268.2</ele>
    <name><![CDATA[chemin de chasse]]></name>
    <desc><![CDATA[]]></desc>
    <type><![CDATA[Point de navigation]]></type>
  </wpt>
  <trk>
    <name><![CDATA[2013-08-25 08:49]]></name>
    <desc><![CDATA[<h1>OruxMaps</h1><br /><hr align="center" width="480" style="height: 2px; width: 517px"/><h2>Nom: 2013-08-25 08:49</h2><br /><p>Temps de départ: 08/25/2013 08:49</p><p>Temps d'arrivée: 08/25/2013 16:06</p><p>Distance: 10,7 km (07:17)</p><p>Temps déplacement: 04:03</p><p>Vitesse moyenne: 1,5 km/h</p><p>Vitesse moyenne: 2,6 km/h</p><p>Vitess Max.: 9,3 km/h</p><p>Altitude minimale: 1063 m</p><p>Altitude maximale: 1498 m</p><p>Vitesse d'élévation: 140,2 m/h</p><p>Vitesse de descente: -159,7 m/h</p><p>Gain Altitude: 426 m</p><p>Perte Altitude: -476 m</p><p>Temps d'élévation: 03:02</p><p>Temps de descente: 02:58</p><hr align="center" width="480" style="height: 2px; width: 517px"/>]]></desc>
    <trkseg>
      <trkpt lat="43.7502" lon="6.63078">
        <ele>1080.97</ele>
        <time>2013-08-25T06:49:02Z</time>
      </trkpt>
      <trkpt lat="43.7502" lon="6.63052">
        <ele>1069.18</ele>
        <time>2013-08-25T06:49:35Z</time>
      </trkpt>
      <trkpt lat="43.75004" lon="6.6304">
        <ele>1069.33</ele>
        <time>2013-08-25T06:49:49Z</time>
      </trkpt>
      <trkpt lat="43.75002" lon="6.63014">
        <ele>1068.37</ele>
        <time>2013-08-25T06:50:11Z</time>
      </trkpt>
      <trkpt lat="43.75014" lon="6.62996">
        <ele>1068.1</ele>
        <time>2013-08-25T06:50:44Z</time>
      </trkpt>
      <trkpt lat="43.75025" lon="6.62976">
        <ele>1068.2</ele>
        <time>2013-08-25T06:51:03Z</time>
      </trkpt>
      <trkpt lat="43.75039" lon="6.62959">
        <ele>1068.61</ele>
        <time>2013-08-25T06:51:22Z</time>
      </trkpt>
      <trkpt lat="43.75051" lon="6.62941">
        <ele>1069.6</ele>
        <time>2013-08-25T06:51:44Z</time>
      </trkpt>
      <trkpt lat="43.75064" lon="6.62923">
        <ele>1068.98</ele>
        <time>2013-08-25T06:52:01Z</time>
      </trkpt>
      <trkpt lat="43.75068" lon="6.62898">
        <ele>1069.62</ele>
        <time>2013-08-25T06:52:21Z</time>
      </trkpt>
      <trkpt lat="43.75084" lon="6.62883">
        <ele>1071.41</ele>
        <time>2013-08-25T06:52:47Z</time>
      </trkpt>
      <trkpt lat="43.75101" lon="6.62874">
        <ele>1073.88</ele>
        <time>2013-08-25T06:53:38Z</time>
      </trkpt>
      <trkpt lat="43.75119" lon="6.62868">
        <ele>1075.02</ele>
        <time>2013-08-25T06:53:57Z</time>
      </trkpt>
      <trkpt lat="43.75136" lon="6.62857">
        <ele>1074.93</ele>
        <time>2013-08-25T06:54:15Z</time>
      </trkpt>
      <trkpt lat="43.75151" lon="6.62841">
        <ele>1075.96</ele>
        <time>2013-08-25T06:54:34Z</time>
      </trkpt>
      <trkpt lat="43.75159" lon="6.62819">
        <ele>1078.51</ele>
        <time>2013-08-25T06:54:55Z</time>
      </trkpt>
      <trkpt lat="43.75167" lon="6.62796">
        <ele>1080.3</ele>
        <time>2013-08-25T06:55:13Z</time>
      </trkpt>
      <trkpt lat="43.75166" lon="6.6277">
        <ele>1083.45</ele>
        <time>2013-08-25T06:55:31Z</time>
      </trkpt>
      <trkpt lat="43.75162" lon="6.62745">
        <ele>1084.19</ele>
        <time>2013-08-25T06:55:46Z</time>
      </trkpt>
      <trkpt lat="43.7516" lon="6.6272">
        <ele>1084.6</ele>
        <time>2013-08-25T06:56:07Z</time>
      </trkpt>
      <trkpt lat="43.75163" lon="6.62695">
        <ele>1086.4</ele>
        <time>2013-08-25T06:56:27Z</time>
      </trkpt>
      <trkpt lat="43.75172" lon="6.62673">
        <ele>1088.29</ele>
        <time>2013-08-25T06:56:49Z</time>
      </trkpt>
      <trkpt lat="43.75178" lon="6.62649">
        <ele>1088.97</ele>
        <time>2013-08-25T06:57:05Z</time>
      </trkpt>
      <trkpt lat="43.75183" lon="6.62624">
        <ele>1089.8</ele>
        <time>2013-08-25T06:57:25Z</time>
      </trkpt>
      <trkpt lat="43.75197" lon="6.62606">
        <ele>1092.28</ele>
        <time>2013-08-25T06:57:45Z</time>
      </trkpt>
      <trkpt lat="43.75201" lon="6.62582">
        <ele>1094.97</ele>
        <time>2013-08-25T06:58:03Z</time>
      </trkpt>
      <trkpt lat="43.75194" lon="6.62559">
        <ele>1097.93</ele>
        <time>2013-08-25T06:58:20Z</time>
      </trkpt>
      <trkpt lat="43.75183" lon="6.62537">
        <ele>1098.54</ele>
        <time>2013-08-25T06:58:35Z</time>
      </trkpt>
      <trkpt lat="43.75176" lon="6.62514">
        <ele>1098.03</ele>
        <time>2013-08-25T06:58:52Z</time>
      </trkpt>
      <trkpt lat="43.75166" lon="6.62492">
        <ele>1097.8</ele>
        <time>2013-08-25T06:59:09Z</time>
      </trkpt>
      <trkpt lat="43.75168" lon="6.62468">
        <ele>1098.57</ele>
        <time>2013-08-25T06:59:27Z</time>
      </trkpt>
      <trkpt lat="43.75177" lon="6.62445">
        <ele>1099.74</ele>
        <time>2013-08-25T06:59:49Z</time>
      </trkpt>
      <trkpt lat="43.75193" lon="6.62431">
        <ele>1100.37</ele>
        <time>2013-08-25T07:00:07Z</time>
      </trkpt>
      <trkpt lat="43.75211" lon="6.62428">
        <ele>1101.93</ele>
        <time>2013-08-25T07:00:26Z</time>
      </trkpt>
      <trkpt lat="43.75229" lon="6.62422">
        <ele>1105.39</ele>
        <time>2013-08-25T07:00:45Z</time>
      </trkpt>
      <trkpt lat="43.75246" lon="6.62415">
        <ele>1107.59</ele>
        <time>2013-08-25T07:01:04Z</time>
      </trkpt>
      <trkpt lat="43.75263" lon="6.62404">
        <ele>1109.23</ele>
        <time>2013-08-25T07:01:22Z</time>
      </trkpt>
      <trkpt lat="43.7528" lon="6.62391">
        <ele>1110.72</ele>
        <time>2013-08-25T07:01:40Z</time>
      </trkpt>
      <trkpt lat="43.75296" lon="6.62378">
        <ele>1111.98</ele>
        <time>2013-08-25T07:01:56Z</time>
      </trkpt>
      <trkpt lat="43.75279" lon="6.62371">
        <ele>1113.86</ele>
        <time>2013-08-25T07:02:23Z</time>
      </trkpt>
      <trkpt lat="43.7526" lon="6.62369">
        <ele>1114.12</ele>
        <time>2013-08-25T07:02:41Z</time>
      </trkpt>
      <trkpt lat="43.75243" lon="6.62363">
        <ele>1115.69</ele>
        <time>2013-08-25T07:03:06Z</time>
      </trkpt>
      <trkpt lat="43.7523" lon="6.62345">
        <ele>1115.16</ele>
        <time>2013-08-25T07:03:46Z</time>
      </trkpt>
      <trkpt lat="43.75214" lon="6.62332">
        <ele>1115.94</ele>
        <time>2013-08-25T07:04:05Z</time>
      </trkpt>
      <trkpt lat="43.75201" lon="6.62313">
        <ele>1119.29</ele>
        <time>2013-08-25T07:04:23Z</time>
      </trkpt>
      <trkpt lat="43.75192" lon="6.62288">
        <ele>1123.86</ele>
        <time>2013-08-25T07:04:44Z</time>
      </trkpt>
      <trkpt lat="43.7518" lon="6.6227">
        <ele>1127.84</ele>
        <time>2013-08-25T07:05:03Z</time>
      </trkpt>
      <trkpt lat="43.75162" lon="6.62262">
        <ele>1131.64</ele>
        <time>2013-08-25T07:05:26Z</time>
      </trkpt>
      <trkpt lat="43.75145" lon="6.62251">
        <ele>1134.27</ele>
        <time>2013-08-25T07:05:48Z</time>
      </trkpt>
      <trkpt lat="43.75129" lon="6.62239">
        <ele>1136.09</ele>
        <time>2013-08-25T07:06:09Z</time>
      </trkpt>
      <trkpt lat="43.75112" lon="6.6223">
        <ele>1137.09</ele>
        <time>2013-08-25T07:06:30Z</time>
      </trkpt>
      <trkpt lat="43.75094" lon="6.62223">
        <ele>1138.7</ele>
        <time>2013-08-25T07:06:57Z</time>
      </trkpt>
      <trkpt lat="43.75076" lon="6.62215">
        <ele>1142.12</ele>
        <time>2013-08-25T07:07:17Z</time>
      </trkpt>
      <trkpt lat="43.7506" lon="6.62204">
        <ele>1144.7</ele>
        <time>2013-08-25T07:07:37Z</time>
      </trkpt>
      <trkpt lat="43.75043" lon="6.62197">
        <ele>1147.27</ele>
        <time>2013-08-25T07:07:58Z</time>
      </trkpt>
      <trkpt lat="43.75025" lon="6.62188">
        <ele>1149.78</ele>
        <time>2013-08-25T07:08:17Z</time>
      </trkpt>
      <trkpt lat="43.75007" lon="6.62188">
        <ele>1151.83</ele>
        <time>2013-08-25T07:08:37Z</time>
      </trkpt>
      <trkpt lat="43.74992" lon="6.62174">
        <ele>1154.54</ele>
        <time>2013-08-25T07:08:58Z</time>
      </trkpt>
      <trkpt lat="43.74977" lon="6.6216">
        <ele>1154.21</ele>
        <time>2013-08-25T07:09:22Z</time>
      </trkpt>
      <trkpt lat="43.74958" lon="6.62159">
        <ele>1156.97</ele>
        <time>2013-08-25T07:09:44Z</time>
      </trkpt>
      <trkpt lat="43.7494" lon="6.62152">
        <ele>1158.29</ele>
        <time>2013-08-25T07:10:06Z</time>
      </trkpt>
      <trkpt lat="43.74927" lon="6.62133">
        <ele>1158.15</ele>
        <time>2013-08-25T07:10:26Z</time>
      </trkpt>
      <trkpt lat="43.74923" lon="6.62108">
        <ele>1158.86</ele>
        <time>2013-08-25T07:10:47Z</time>
      </trkpt>
      <trkpt lat="43.74913" lon="6.62087">
        <ele>1158.47</ele>
        <time>2013-08-25T07:11:15Z</time>
      </trkpt>
      <trkpt lat="43.74897" lon="6.62074">
        <ele>1159.63</ele>
        <time>2013-08-25T07:11:39Z</time>
      </trkpt>
      <trkpt lat="43.74879" lon="6.62066">
        <ele>1162.45</ele>
        <time>2013-08-25T07:12:02Z</time>
      </trkpt>
      <trkpt lat="43.74863" lon="6.62056">
        <ele>1165.88</ele>
        <time>2013-08-25T07:12:26Z</time>
      </trkpt>
      <trkpt lat="43.74854" lon="6.62034">
        <ele>1166.23</ele>
        <time>2013-08-25T07:12:50Z</time>
      </trkpt>
      <trkpt lat="43.74866" lon="6.62054">
        <ele>1176.2</ele>
        <time>2013-08-25T07:19:28Z</time>
      </trkpt>
      <trkpt lat="43.74884" lon="6.62051">
        <ele>1176.7</ele>
        <time>2013-08-25T07:19:56Z</time>
      </trkpt>
      <trkpt lat="43.74902" lon="6.62051">
        <ele>1177.59</ele>
        <time>2013-08-25T07:20:16Z</time>
      </trkpt>
      <trkpt lat="43.74921" lon="6.62054">
        <ele>1179.02</ele>
        <time>2013-08-25T07:20:43Z</time>
      </trkpt>
      <trkpt lat="43.74938" lon="6.6206">
        <ele>1179.62</ele>
        <time>2013-08-25T07:21:04Z</time>
      </trkpt>
      <trkpt lat="43.74957" lon="6.62063">
        <ele>1181.79</ele>
        <time>2013-08-25T07:21:34Z</time>
      </trkpt>
      <trkpt lat="43.74975" lon="6.62061">
        <ele>1184.21</ele>
        <time>2013-08-25T07:22:06Z</time>
      </trkpt>
      <trkpt lat="43.74994" lon="6.62056">
        <ele>1186.6</ele>
        <time>2013-08-25T07:22:25Z</time>
      </trkpt>
      <trkpt lat="43.75012" lon="6.62059">
        <ele>1187.2</ele>
        <time>2013-08-25T07:22:51Z</time>
      </trkpt>
      <trkpt lat="43.7503" lon="6.6206">
        <ele>1188.15</ele>
        <time>2013-08-25T07:23:16Z</time>
      </trkpt>
      <trkpt lat="43.75049" lon="6.62062">
        <ele>1190.46</ele>
        <time>2013-08-25T07:23:41Z</time>
      </trkpt>
      <trkpt lat="43.75067" lon="6.62056">
        <ele>1192.56</ele>
        <time>2013-08-25T07:23:58Z</time>
      </trkpt>
      <trkpt lat="43.75085" lon="6.6206">
        <ele>1193.39</ele>
        <time>2013-08-25T07:24:26Z</time>
      </trkpt>
      <trkpt lat="43.75103" lon="6.62056">
        <ele>1195.02</ele>
        <time>2013-08-25T07:24:50Z</time>
      </trkpt>
      <trkpt lat="43.75122" lon="6.62053">
        <ele>1198.2</ele>
        <time>2013-08-25T07:25:15Z</time>
      </trkpt>
      <trkpt lat="43.7514" lon="6.62055">
        <ele>1199.87</ele>
        <time>2013-08-25T07:25:40Z</time>
      </trkpt>
      <trkpt lat="43.75156" lon="6.62066">
        <ele>1200.28</ele>
        <time>2013-08-25T07:26:03Z</time>
      </trkpt>
      <trkpt lat="43.75173" lon="6.62076">
        <ele>1202.27</ele>
        <time>2013-08-25T07:26:29Z</time>
      </trkpt>
      <trkpt lat="43.7519" lon="6.62088">
        <ele>1206.86</ele>
        <time>2013-08-25T07:26:55Z</time>
      </trkpt>
      <trkpt lat="43.75208" lon="6.62091">
        <ele>1210.11</ele>
        <time>2013-08-25T07:27:17Z</time>
      </trkpt>
      <trkpt lat="43.75226" lon="6.62085">
        <ele>1212.66</ele>
        <time>2013-08-25T07:27:46Z</time>
      </trkpt>
      <trkpt lat="43.75242" lon="6.62071">
        <ele>1214.89</ele>
        <time>2013-08-25T07:28:58Z</time>
      </trkpt>
      <trkpt lat="43.75259" lon="6.62065">
        <ele>1217.04</ele>
        <time>2013-08-25T07:29:21Z</time>
      </trkpt>
      <trkpt lat="43.75274" lon="6.62082">
        <ele>1218.07</ele>
        <time>2013-08-25T07:29:56Z</time>
      </trkpt>
      <trkpt lat="43.7529" lon="6.62093">
        <ele>1218.95</ele>
        <time>2013-08-25T07:30:21Z</time>
      </trkpt>
      <trkpt lat="43.75308" lon="6.62098">
        <ele>1220.51</ele>
        <time>2013-08-25T07:31:25Z</time>
      </trkpt>
      <trkpt lat="43.75326" lon="6.62096">
        <ele>1222.66</ele>
        <time>2013-08-25T07:31:51Z</time>
      </trkpt>
      <trkpt lat="43.75345" lon="6.62095">
        <ele>1225.1</ele>
        <time>2013-08-25T07:32:20Z</time>
      </trkpt>
      <trkpt lat="43.75363" lon="6.6209">
        <ele>1228.21</ele>
        <time>2013-08-25T07:32:47Z</time>
      </trkpt>
      <trkpt lat="43.75382" lon="6.62088">
        <ele>1230.8</ele>
        <time>2013-08-25T07:33:09Z</time>
      </trkpt>
      <trkpt lat="43.75399" lon="6.62081">
        <ele>1230.54</ele>
        <time>2013-08-25T07:33:29Z</time>
      </trkpt>
      <trkpt lat="43.75416" lon="6.62072">
        <ele>1234.81</ele>
        <time>2013-08-25T07:37:34Z</time>
      </trkpt>
      <trkpt lat="43.75434" lon="6.62065">
        <ele>1235.9</ele>
        <time>2013-08-25T07:38:00Z</time>
      </trkpt>
      <trkpt lat="43.75452" lon="6.6206">
        <ele>1236.21</ele>
        <time>2013-08-25T07:38:28Z</time>
      </trkpt>
      <trkpt lat="43.75471" lon="6.62059">
        <ele>1239.21</ele>
        <time>2013-08-25T07:38:56Z</time>
      </trkpt>
      <trkpt lat="43.75489" lon="6.62059">
        <ele>1240.59</ele>
        <time>2013-08-25T07:39:21Z</time>
      </trkpt>
      <trkpt lat="43.75507" lon="6.62061">
        <ele>1242.46</ele>
        <time>2013-08-25T07:39:48Z</time>
      </trkpt>
      <trkpt lat="43.75525" lon="6.62061">
        <ele>1245.37</ele>
        <time>2013-08-25T07:40:20Z</time>
      </trkpt>
      <trkpt lat="43.75543" lon="6.62067">
        <ele>1246.13</ele>
        <time>2013-08-25T07:40:44Z</time>
      </trkpt>
      <trkpt lat="43.75561" lon="6.62068">
        <ele>1247.69</ele>
        <time>2013-08-25T07:41:06Z</time>
      </trkpt>
      <trkpt lat="43.75579" lon="6.62061">
        <ele>1250.57</ele>
        <time>2013-08-25T07:41:45Z</time>
      </trkpt>
      <trkpt lat="43.75598" lon="6.62064">
        <ele>1251.65</ele>
        <time>2013-08-25T07:42:06Z</time>
      </trkpt>
      <trkpt lat="43.75616" lon="6.62067">
        <ele>1253.07</ele>
        <time>2013-08-25T07:42:32Z</time>
      </trkpt>
      <trkpt lat="43.75633" lon="6.62075">
        <ele>1254.26</ele>
        <time>2013-08-25T07:42:59Z</time>
      </trkpt>
      <trkpt lat="43.75652" lon="6.62074">
        <ele>1256.46</ele>
        <time>2013-08-25T07:43:25Z</time>
      </trkpt>
      <trkpt lat="43.75669" lon="6.62067">
        <ele>1260.21</ele>
        <time>2013-08-25T07:43:51Z</time>
      </trkpt>
      <trkpt lat="43.75687" lon="6.62061">
        <ele>1262.62</ele>
        <time>2013-08-25T07:44:13Z</time>
      </trkpt>
      <trkpt lat="43.75705" lon="6.62057">
        <ele>1264.76</ele>
        <time>2013-08-25T07:44:38Z</time>
      </trkpt>
      <trkpt lat="43.75723" lon="6.62049">
        <ele>1268.72</ele>
        <time>2013-08-25T07:45:03Z</time>
      </trkpt>
      <trkpt lat="43.75735" lon="6.62029">
        <ele>1271.49</ele>
        <time>2013-08-25T07:45:31Z</time>
      </trkpt>
      <trkpt lat="43.75749" lon="6.62012">
        <ele>1275.23</ele>
        <time>2013-08-25T07:46:02Z</time>
      </trkpt>
      <trkpt lat="43.75762" lon="6.61995">
        <ele>1279.02</ele>
        <time>2013-08-25T07:48:40Z</time>
      </trkpt>
      <trkpt lat="43.75772" lon="6.61974">
        <ele>1282.76</ele>
        <time>2013-08-25T07:49:06Z</time>
      </trkpt>
      <trkpt lat="43.75781" lon="6.61952">
        <ele>1285.77</ele>
        <time>2013-08-25T07:49:31Z</time>
      </trkpt>
      <trkpt lat="43.75783" lon="6.61927">
        <ele>1287.61</ele>
        <time>2013-08-25T07:50:05Z</time>
      </trkpt>
      <trkpt lat="43.7578" lon="6.61902">
        <ele>1288.4</ele>
        <time>2013-08-25T07:50:25Z</time>
      </trkpt>
      <trkpt lat="43.75772" lon="6.61879">
        <ele>1288.29</ele>
        <time>2013-08-25T07:50:46Z</time>
      </trkpt>
      <trkpt lat="43.75755" lon="6.61869">
        <ele>1290.29</ele>
        <time>2013-08-25T07:53:16Z</time>
      </trkpt>
      <trkpt lat="43.75738" lon="6.61859">
        <ele>1294.8</ele>
        <time>2013-08-25T07:54:05Z</time>
      </trkpt>
      <trkpt lat="43.75724" lon="6.61843">
        <ele>1300.85</ele>
        <time>2013-08-25T07:55:40Z</time>
      </trkpt>
      <trkpt lat="43.75707" lon="6.61835">
        <ele>1309.74</ele>
        <time>2013-08-25T07:56:51Z</time>
      </trkpt>
      <trkpt lat="43.7569" lon="6.61824">
        <ele>1326.66</ele>
        <time>2013-08-25T08:03:22Z</time>
      </trkpt>
      <trkpt lat="43.75672" lon="6.61824">
        <ele>1332.14</ele>
        <time>2013-08-25T08:04:56Z</time>
      </trkpt>
      <trkpt lat="43.75654" lon="6.6182">
        <ele>1345.2</ele>
        <time>2013-08-25T08:11:29Z</time>
      </trkpt>
      <trkpt lat="43.75654" lon="6.61811">
        <ele>1342.05</ele>
        <time>2013-08-25T08:25:43Z</time>
      </trkpt>
      <trkpt lat="43.75636" lon="6.61803">
        <ele>1335.9</ele>
        <time>2013-08-25T08:25:49Z</time>
      </trkpt>
      <trkpt lat="43.75631" lon="6.61779">
        <ele>1358.32</ele>
        <time>2013-08-25T08:33:59Z</time>
      </trkpt>
      <trkpt lat="43.75616" lon="6.61765">
        <ele>1366.38</ele>
        <time>2013-08-25T08:35:47Z</time>
      </trkpt>
      <trkpt lat="43.75604" lon="6.61746">
        <ele>1373.8</ele>
        <time>2013-08-25T08:37:36Z</time>
      </trkpt>
      <trkpt lat="43.75589" lon="6.61731">
        <ele>1381.38</ele>
        <time>2013-08-25T08:39:54Z</time>
      </trkpt>
      <trkpt lat="43.75576" lon="6.61714">
        <ele>1387.42</ele>
        <time>2013-08-25T08:41:11Z</time>
      </trkpt>
      <trkpt lat="43.75564" lon="6.61696">
        <ele>1395.3</ele>
        <time>2013-08-25T08:43:03Z</time>
      </trkpt>
      <trkpt lat="43.7555" lon="6.6168">
        <ele>1400.6</ele>
        <time>2013-08-25T08:44:11Z</time>
      </trkpt>
      <trkpt lat="43.75543" lon="6.61657">
        <ele>1413.04</ele>
        <time>2013-08-25T08:50:45Z</time>
      </trkpt>
      <trkpt lat="43.75529" lon="6.61641">
        <ele>1413.35</ele>
        <time>2013-08-25T09:08:10Z</time>
      </trkpt>
      <trkpt lat="43.75512" lon="6.61629">
        <ele>1418.33</ele>
        <time>2013-08-25T09:08:52Z</time>
      </trkpt>
      <trkpt lat="43.75496" lon="6.61619">
        <ele>1422.03</ele>
        <time>2013-08-25T09:09:26Z</time>
      </trkpt>
      <trkpt lat="43.75483" lon="6.61602">
        <ele>1427.84</ele>
        <time>2013-08-25T09:10:10Z</time>
      </trkpt>
      <trkpt lat="43.75465" lon="6.61603">
        <ele>1433.83</ele>
        <time>2013-08-25T09:11:38Z</time>
      </trkpt>
      <trkpt lat="43.75447" lon="6.61598">
        <ele>1441.23</ele>
        <time>2013-08-25T09:13:14Z</time>
      </trkpt>
      <trkpt lat="43.75438" lon="6.61575">
        <ele>1447.62</ele>
        <time>2013-08-25T09:15:37Z</time>
      </trkpt>
      <trkpt lat="43.75427" lon="6.61556">
        <ele>1447.83</ele>
        <time>2013-08-25T09:16:29Z</time>
      </trkpt>
      <trkpt lat="43.75409" lon="6.61549">
        <ele>1455.5</ele>
        <time>2013-08-25T09:22:53Z</time>
      </trkpt>
      <trkpt lat="43.75391" lon="6.61552">
        <ele>1457.67</ele>
        <time>2013-08-25T09:24:09Z</time>
      </trkpt>
      <trkpt lat="43.75407" lon="6.6154">
        <ele>1460.86</ele>
        <time>2013-08-25T09:26:17Z</time>
      </trkpt>
      <trkpt lat="43.75393" lon="6.61524">
        <ele>1459.04</ele>
        <time>2013-08-25T09:27:41Z</time>
      </trkpt>
      <trkpt lat="43.75406" lon="6.61506">
        <ele>1458.43</ele>
        <time>2013-08-25T09:32:41Z</time>
      </trkpt>
      <trkpt lat="43.75388" lon="6.61502">
        <ele>1457.45</ele>
        <time>2013-08-25T09:34:39Z</time>
      </trkpt>
      <trkpt lat="43.75375" lon="6.6152">
        <ele>1458.49</ele>
        <time>2013-08-25T09:35:43Z</time>
      </trkpt>
      <trkpt lat="43.75361" lon="6.61505">
        <ele>1460.28</ele>
        <time>2013-08-25T09:36:23Z</time>
      </trkpt>
      <trkpt lat="43.75358" lon="6.6148">
        <ele>1464.01</ele>
        <time>2013-08-25T09:37:17Z</time>
      </trkpt>
      <trkpt lat="43.7534" lon="6.61479">
        <ele>1473.34</ele>
        <time>2013-08-25T09:39:24Z</time>
      </trkpt>
      <trkpt lat="43.75323" lon="6.61468">
        <ele>1476.14</ele>
        <time>2013-08-25T09:40:05Z</time>
      </trkpt>
      <trkpt lat="43.75309" lon="6.61451">
        <ele>1479.82</ele>
        <time>2013-08-25T09:41:32Z</time>
      </trkpt>
      <trkpt lat="43.75291" lon="6.61452">
        <ele>1483.1</ele>
        <time>2013-08-25T09:42:17Z</time>
      </trkpt>
      <trkpt lat="43.75276" lon="6.61439">
        <ele>1484.36</ele>
        <time>2013-08-25T09:42:41Z</time>
      </trkpt>
      <trkpt lat="43.75259" lon="6.61429">
        <ele>1485.79</ele>
        <time>2013-08-25T09:43:13Z</time>
      </trkpt>
      <trkpt lat="43.75243" lon="6.61418">
        <ele>1486.93</ele>
        <time>2013-08-25T09:43:50Z</time>
      </trkpt>
      <trkpt lat="43.75225" lon="6.61408">
        <ele>1489.2</ele>
        <time>2013-08-25T09:44:15Z</time>
      </trkpt>
      <trkpt lat="43.75207" lon="6.61403">
        <ele>1491.15</ele>
        <time>2013-08-25T09:44:38Z</time>
      </trkpt>
      <trkpt lat="43.75191" lon="6.61414">
        <ele>1493.74</ele>
        <time>2013-08-25T09:45:47Z</time>
      </trkpt>
      <trkpt lat="43.75194" lon="6.61439">
        <ele>1495.3</ele>
        <time>2013-08-25T09:46:20Z</time>
      </trkpt>
      <trkpt lat="43.75204" lon="6.6146">
        <ele>1494.42</ele>
        <time>2013-08-25T09:46:57Z</time>
      </trkpt>
      <trkpt lat="43.7521" lon="6.61484">
        <ele>1490.9</ele>
        <time>2013-08-25T09:47:40Z</time>
      </trkpt>
      <trkpt lat="43.75222" lon="6.61504">
        <ele>1488.1</ele>
        <time>2013-08-25T09:48:13Z</time>
      </trkpt>
      <trkpt lat="43.75229" lon="6.61527">
        <ele>1483.05</ele>
        <time>2013-08-25T09:48:52Z</time>
      </trkpt>
      <trkpt lat="43.75218" lon="6.61547">
        <ele>1467.53</ele>
        <time>2013-08-25T09:50:37Z</time>
      </trkpt>
      <trkpt lat="43.75203" lon="6.61561">
        <ele>1461.08</ele>
        <time>2013-08-25T09:54:56Z</time>
      </trkpt>
      <trkpt lat="43.75185" lon="6.61555">
        <ele>1449.02</ele>
        <time>2013-08-25T10:00:32Z</time>
      </trkpt>
      <trkpt lat="43.75203" lon="6.61559">
        <ele>1456.45</ele>
        <time>2013-08-25T10:05:05Z</time>
      </trkpt>
      <trkpt lat="43.7522" lon="6.61549">
        <ele>1458.62</ele>
        <time>2013-08-25T10:05:47Z</time>
      </trkpt>
      <trkpt lat="43.75234" lon="6.61533">
        <ele>1462.46</ele>
        <time>2013-08-25T10:06:51Z</time>
      </trkpt>
      <trkpt lat="43.75221" lon="6.61514">
        <ele>1467.24</ele>
        <time>2013-08-25T10:07:52Z</time>
      </trkpt>
      <trkpt lat="43.7521" lon="6.61494">
        <ele>1468.94</ele>
        <time>2013-08-25T10:08:35Z</time>
      </trkpt>
      <trkpt lat="43.75207" lon="6.61469">
        <ele>1471.2</ele>
        <time>2013-08-25T10:09:26Z</time>
      </trkpt>
      <trkpt lat="43.75196" lon="6.6145">
        <ele>1480.96</ele>
        <time>2013-08-25T10:11:00Z</time>
      </trkpt>
      <trkpt lat="43.75193" lon="6.61425">
        <ele>1485.7</ele>
        <time>2013-08-25T10:11:50Z</time>
      </trkpt>
      <trkpt lat="43.75193" lon="6.614">
        <ele>1491.91</ele>
        <time>2013-08-25T10:12:41Z</time>
      </trkpt>
      <trkpt lat="43.75196" lon="6.61375">
        <ele>1496.22</ele>
        <time>2013-08-25T10:13:23Z</time>
      </trkpt>
      <trkpt lat="43.75203" lon="6.61399">
        <ele>1496.95</ele>
        <time>2013-08-25T10:14:23Z</time>
      </trkpt>
      <trkpt lat="43.75222" lon="6.614">
        <ele>1497.56</ele>
        <time>2013-08-25T10:15:38Z</time>
      </trkpt>
      <trkpt lat="43.75238" lon="6.61411">
        <ele>1498</ele>
        <time>2013-08-25T10:16:07Z</time>
      </trkpt>
      <trkpt lat="43.75255" lon="6.61421">
        <ele>1497.04</ele>
        <time>2013-08-25T10:17:44Z</time>
      </trkpt>
      <trkpt lat="43.75271" lon="6.61435">
        <ele>1495.01</ele>
        <time>2013-08-25T10:18:23Z</time>
      </trkpt>
      <trkpt lat="43.75286" lon="6.6145">
        <ele>1493.38</ele>
        <time>2013-08-25T10:18:52Z</time>
      </trkpt>
      <trkpt lat="43.75304" lon="6.61446">
        <ele>1493.11</ele>
        <time>2013-08-25T10:19:38Z</time>
      </trkpt>
      <trkpt lat="43.75318" lon="6.61463">
        <ele>1490.22</ele>
        <time>2013-08-25T10:20:27Z</time>
      </trkpt>
      <trkpt lat="43.75335" lon="6.61473">
        <ele>1484.76</ele>
        <time>2013-08-25T10:22:43Z</time>
      </trkpt>
      <trkpt lat="43.75351" lon="6.61484">
        <ele>1479.99</ele>
        <time>2013-08-25T10:23:28Z</time>
      </trkpt>
      <trkpt lat="43.75365" lon="6.61502">
        <ele>1475.96</ele>
        <time>2013-08-25T10:25:14Z</time>
      </trkpt>
      <trkpt lat="43.75372" lon="6.61525">
        <ele>1473.72</ele>
        <time>2013-08-25T10:26:24Z</time>
      </trkpt>
      <trkpt lat="43.75386" lon="6.61542">
        <ele>1467.92</ele>
        <time>2013-08-25T10:27:42Z</time>
      </trkpt>
      <trkpt lat="43.75404" lon="6.61548">
        <ele>1460.3</ele>
        <time>2013-08-25T10:29:27Z</time>
      </trkpt>
      <trkpt lat="43.7542" lon="6.61561">
        <ele>1453.87</ele>
        <time>2013-08-25T10:30:28Z</time>
      </trkpt>
      <trkpt lat="43.75435" lon="6.61575">
        <ele>1450.45</ele>
        <time>2013-08-25T10:31:08Z</time>
      </trkpt>
      <trkpt lat="43.75441" lon="6.61598">
        <ele>1448.69</ele>
        <time>2013-08-25T10:33:06Z</time>
      </trkpt>
      <trkpt lat="43.75422" lon="6.61603">
        <ele>1446.69</ele>
        <time>2013-08-25T10:53:35Z</time>
      </trkpt>
      <trkpt lat="43.75405" lon="6.61613">
        <ele>1445.71</ele>
        <time>2013-08-25T10:54:13Z</time>
      </trkpt>
      <trkpt lat="43.75423" lon="6.61618">
        <ele>1442.97</ele>
        <time>2013-08-25T10:58:11Z</time>
      </trkpt>
      <trkpt lat="43.7544" lon="6.61609">
        <ele>1441.03</ele>
        <time>2013-08-25T11:01:35Z</time>
      </trkpt>
      <trkpt lat="43.75434" lon="6.61585">
        <ele>1450.9</ele>
        <time>2013-08-25T11:06:17Z</time>
      </trkpt>
      <trkpt lat="43.75436" lon="6.6161">
        <ele>1450.99</ele>
        <time>2013-08-25T11:10:56Z</time>
      </trkpt>
      <trkpt lat="43.75442" lon="6.61586">
        <ele>1452.75</ele>
        <time>2013-08-25T11:15:29Z</time>
      </trkpt>
      <trkpt lat="43.75454" lon="6.61568">
        <ele>1448.98</ele>
        <time>2013-08-25T11:16:53Z</time>
      </trkpt>
      <trkpt lat="43.75472" lon="6.61569">
        <ele>1445.25</ele>
        <time>2013-08-25T11:17:51Z</time>
      </trkpt>
      <trkpt lat="43.75486" lon="6.61586">
        <ele>1440.51</ele>
        <time>2013-08-25T11:19:05Z</time>
      </trkpt>
      <trkpt lat="43.75501" lon="6.61599">
        <ele>1436.02</ele>
        <time>2013-08-25T11:20:11Z</time>
      </trkpt>
      <trkpt lat="43.75508" lon="6.61623">
        <ele>1432.79</ele>
        <time>2013-08-25T11:21:26Z</time>
      </trkpt>
      <trkpt lat="43.75522" lon="6.61638">
        <ele>1429.21</ele>
        <time>2013-08-25T11:23:21Z</time>
      </trkpt>
      <trkpt lat="43.75539" lon="6.61647">
        <ele>1426.63</ele>
        <time>2013-08-25T11:25:42Z</time>
      </trkpt>
      <trkpt lat="43.75523" lon="6.61637">
        <ele>1427.79</ele>
        <time>2013-08-25T11:27:47Z</time>
      </trkpt>
      <trkpt lat="43.7551" lon="6.61655">
        <ele>1424.67</ele>
        <time>2013-08-25T11:30:07Z</time>
      </trkpt>
      <trkpt lat="43.75518" lon="6.61631">
        <ele>1422.68</ele>
        <time>2013-08-25T11:32:17Z</time>
      </trkpt>
      <trkpt lat="43.75529" lon="6.61612">
        <ele>1425.62</ele>
        <time>2013-08-25T11:33:51Z</time>
      </trkpt>
      <trkpt lat="43.75521" lon="6.61634">
        <ele>1425.77</ele>
        <time>2013-08-25T11:34:47Z</time>
      </trkpt>
      <trkpt lat="43.75538" lon="6.61643">
        <ele>1426.5</ele>
        <time>2013-08-25T11:36:34Z</time>
      </trkpt>
      <trkpt lat="43.75533" lon="6.61667">
        <ele>1419.89</ele>
        <time>2013-08-25T11:40:00Z</time>
      </trkpt>
      <trkpt lat="43.75549" lon="6.61678">
        <ele>1410.29</ele>
        <time>2013-08-25T11:46:34Z</time>
      </trkpt>
      <trkpt lat="43.75561" lon="6.61696">
        <ele>1404.89</ele>
        <time>2013-08-25T11:47:50Z</time>
      </trkpt>
      <trkpt lat="43.75576" lon="6.61711">
        <ele>1398</ele>
        <time>2013-08-25T11:52:36Z</time>
      </trkpt>
      <trkpt lat="43.7559" lon="6.61728">
        <ele>1397.06</ele>
        <time>2013-08-25T11:54:37Z</time>
      </trkpt>
      <trkpt lat="43.75603" lon="6.61745">
        <ele>1391.54</ele>
        <time>2013-08-25T11:55:47Z</time>
      </trkpt>
      <trkpt lat="43.75616" lon="6.61763">
        <ele>1386.3</ele>
        <time>2013-08-25T11:56:56Z</time>
      </trkpt>
      <trkpt lat="43.75629" lon="6.6178">
        <ele>1373.86</ele>
        <time>2013-08-25T11:59:00Z</time>
      </trkpt>
      <trkpt lat="43.75643" lon="6.61797">
        <ele>1364.15</ele>
        <time>2013-08-25T12:00:49Z</time>
      </trkpt>
      <trkpt lat="43.75651" lon="6.61819">
        <ele>1355.67</ele>
        <time>2013-08-25T12:01:45Z</time>
      </trkpt>
      <trkpt lat="43.75668" lon="6.61828">
        <ele>1346.83</ele>
        <time>2013-08-25T12:03:00Z</time>
      </trkpt>
      <trkpt lat="43.75686" lon="6.61824">
        <ele>1339.42</ele>
        <time>2013-08-25T12:04:22Z</time>
      </trkpt>
      <trkpt lat="43.75701" lon="6.61837">
        <ele>1327.96</ele>
        <time>2013-08-25T12:06:21Z</time>
      </trkpt>
      <trkpt lat="43.75717" lon="6.61848">
        <ele>1320.41</ele>
        <time>2013-08-25T12:07:27Z</time>
      </trkpt>
      <trkpt lat="43.75736" lon="6.61846">
        <ele>1309.01</ele>
        <time>2013-08-25T12:09:25Z</time>
      </trkpt>
      <trkpt lat="43.75748" lon="6.61864">
        <ele>1303.35</ele>
        <time>2013-08-25T12:10:26Z</time>
      </trkpt>
      <trkpt lat="43.75766" lon="6.61871">
        <ele>1294.78</ele>
        <time>2013-08-25T12:11:46Z</time>
      </trkpt>
      <trkpt lat="43.7577" lon="6.61845">
        <ele>1291.39</ele>
        <time>2013-08-25T12:12:31Z</time>
      </trkpt>
      <trkpt lat="43.75764" lon="6.61821">
        <ele>1288.35</ele>
        <time>2013-08-25T12:12:48Z</time>
      </trkpt>
      <trkpt lat="43.75758" lon="6.61797">
        <ele>1285.92</ele>
        <time>2013-08-25T12:13:03Z</time>
      </trkpt>
      <trkpt lat="43.75753" lon="6.61773">
        <ele>1284.26</ele>
        <time>2013-08-25T12:13:22Z</time>
      </trkpt>
      <trkpt lat="43.75752" lon="6.61748">
        <ele>1284.4</ele>
        <time>2013-08-25T12:13:44Z</time>
      </trkpt>
      <trkpt lat="43.75751" lon="6.61723">
        <ele>1284.67</ele>
        <time>2013-08-25T12:14:31Z</time>
      </trkpt>
      <trkpt lat="43.75749" lon="6.61698">
        <ele>1284.97</ele>
        <time>2013-08-25T12:14:49Z</time>
      </trkpt>
      <trkpt lat="43.75743" lon="6.61673">
        <ele>1284.52</ele>
        <time>2013-08-25T12:15:06Z</time>
      </trkpt>
      <trkpt lat="43.75739" lon="6.61648">
        <ele>1284.2</ele>
        <time>2013-08-25T12:15:23Z</time>
      </trkpt>
      <trkpt lat="43.75736" lon="6.61623">
        <ele>1283.45</ele>
        <time>2013-08-25T12:15:39Z</time>
      </trkpt>
      <trkpt lat="43.75732" lon="6.61597">
        <ele>1283.56</ele>
        <time>2013-08-25T12:15:54Z</time>
      </trkpt>
      <trkpt lat="43.75727" lon="6.61572">
        <ele>1284.06</ele>
        <time>2013-08-25T12:16:11Z</time>
      </trkpt>
      <trkpt lat="43.75724" lon="6.61547">
        <ele>1283.91</ele>
        <time>2013-08-25T12:16:28Z</time>
      </trkpt>
      <trkpt lat="43.75721" lon="6.61522">
        <ele>1281.85</ele>
        <time>2013-08-25T12:17:21Z</time>
      </trkpt>
      <trkpt lat="43.7572" lon="6.61496">
        <ele>1281.4</ele>
        <time>2013-08-25T12:17:48Z</time>
      </trkpt>
      <trkpt lat="43.75716" lon="6.61471">
        <ele>1281.75</ele>
        <time>2013-08-25T12:18:16Z</time>
      </trkpt>
      <trkpt lat="43.75709" lon="6.61447">
        <ele>1281.07</ele>
        <time>2013-08-25T12:18:42Z</time>
      </trkpt>
      <trkpt lat="43.75705" lon="6.61422">
        <ele>1280.49</ele>
        <time>2013-08-25T12:19:04Z</time>
      </trkpt>
      <trkpt lat="43.75701" lon="6.61397">
        <ele>1281.82</ele>
        <time>2013-08-25T12:19:34Z</time>
      </trkpt>
      <trkpt lat="43.75699" lon="6.61372">
        <ele>1282.37</ele>
        <time>2013-08-25T12:19:50Z</time>
      </trkpt>
      <trkpt lat="43.75692" lon="6.61349">
        <ele>1282.16</ele>
        <time>2013-08-25T12:20:08Z</time>
      </trkpt>
      <trkpt lat="43.75685" lon="6.61325">
        <ele>1282.66</ele>
        <time>2013-08-25T12:20:23Z</time>
      </trkpt>
      <trkpt lat="43.75679" lon="6.61301">
        <ele>1281.68</ele>
        <time>2013-08-25T12:20:40Z</time>
      </trkpt>
      <trkpt lat="43.75674" lon="6.61277">
        <ele>1280.97</ele>
        <time>2013-08-25T12:20:59Z</time>
      </trkpt>
      <trkpt lat="43.75673" lon="6.61252">
        <ele>1281.29</ele>
        <time>2013-08-25T12:21:15Z</time>
      </trkpt>
      <trkpt lat="43.75672" lon="6.61226">
        <ele>1280.86</ele>
        <time>2013-08-25T12:21:31Z</time>
      </trkpt>
      <trkpt lat="43.7567" lon="6.61201">
        <ele>1281.77</ele>
        <time>2013-08-25T12:21:49Z</time>
      </trkpt>
      <trkpt lat="43.75664" lon="6.61176">
        <ele>1282.61</ele>
        <time>2013-08-25T12:22:06Z</time>
      </trkpt>
      <trkpt lat="43.7566" lon="6.6115">
        <ele>1282.37</ele>
        <time>2013-08-25T12:22:21Z</time>
      </trkpt>
      <trkpt lat="43.75654" lon="6.61126">
        <ele>1282.08</ele>
        <time>2013-08-25T12:22:40Z</time>
      </trkpt>
      <trkpt lat="43.75648" lon="6.61101">
        <ele>1282.17</ele>
        <time>2013-08-25T12:22:57Z</time>
      </trkpt>
      <trkpt lat="43.75641" lon="6.61077">
        <ele>1282.03</ele>
        <time>2013-08-25T12:23:13Z</time>
      </trkpt>
      <trkpt lat="43.75635" lon="6.61053">
        <ele>1281.9</ele>
        <time>2013-08-25T12:23:30Z</time>
      </trkpt>
      <trkpt lat="43.75629" lon="6.61029">
        <ele>1281</ele>
        <time>2013-08-25T12:24:59Z</time>
      </trkpt>
      <trkpt lat="43.75616" lon="6.6101">
        <ele>1281.46</ele>
        <time>2013-08-25T12:25:16Z</time>
      </trkpt>
      <trkpt lat="43.75604" lon="6.60991">
        <ele>1281.99</ele>
        <time>2013-08-25T12:25:31Z</time>
      </trkpt>
      <trkpt lat="43.75597" lon="6.60966">
        <ele>1282.6</ele>
        <time>2013-08-25T12:25:48Z</time>
      </trkpt>
      <trkpt lat="43.75591" lon="6.60942">
        <ele>1281.81</ele>
        <time>2013-08-25T12:26:04Z</time>
      </trkpt>
      <trkpt lat="43.75582" lon="6.6092">
        <ele>1281.7</ele>
        <time>2013-08-25T12:26:20Z</time>
      </trkpt>
      <trkpt lat="43.75572" lon="6.60897">
        <ele>1281.44</ele>
        <time>2013-08-25T12:26:37Z</time>
      </trkpt>
      <trkpt lat="43.75559" lon="6.60879">
        <ele>1280.7</ele>
        <time>2013-08-25T12:26:53Z</time>
      </trkpt>
      <trkpt lat="43.7555" lon="6.60856">
        <ele>1279.33</ele>
        <time>2013-08-25T12:27:10Z</time>
      </trkpt>
      <trkpt lat="43.75543" lon="6.60832">
        <ele>1278.1</ele>
        <time>2013-08-25T12:27:27Z</time>
      </trkpt>
      <trkpt lat="43.75534" lon="6.60809">
        <ele>1275.8</ele>
        <time>2013-08-25T12:27:44Z</time>
      </trkpt>
      <trkpt lat="43.75527" lon="6.60785">
        <ele>1273.7</ele>
        <time>2013-08-25T12:28:01Z</time>
      </trkpt>
      <trkpt lat="43.75527" lon="6.6076">
        <ele>1272.59</ele>
        <time>2013-08-25T12:28:16Z</time>
      </trkpt>
      <trkpt lat="43.75527" lon="6.60734">
        <ele>1272.88</ele>
        <time>2013-08-25T12:28:33Z</time>
      </trkpt>
      <trkpt lat="43.75523" lon="6.60709">
        <ele>1272.6</ele>
        <time>2013-08-25T12:28:56Z</time>
      </trkpt>
      <trkpt lat="43.75518" lon="6.60683">
        <ele>1272.77</ele>
        <time>2013-08-25T12:29:14Z</time>
      </trkpt>
      <trkpt lat="43.7551" lon="6.6066">
        <ele>1272.8</ele>
        <time>2013-08-25T12:29:30Z</time>
      </trkpt>
      <trkpt lat="43.75507" lon="6.60635">
        <ele>1272.33</ele>
        <time>2013-08-25T12:29:46Z</time>
      </trkpt>
      <trkpt lat="43.755" lon="6.60611">
        <ele>1272.5</ele>
        <time>2013-08-25T12:30:00Z</time>
      </trkpt>
      <trkpt lat="43.75491" lon="6.6059">
        <ele>1274.02</ele>
        <time>2013-08-25T12:30:15Z</time>
      </trkpt>
      <trkpt lat="43.7548" lon="6.6057">
        <ele>1275.18</ele>
        <time>2013-08-25T12:30:32Z</time>
      </trkpt>
      <trkpt lat="43.75465" lon="6.60553">
        <ele>1276.94</ele>
        <time>2013-08-25T12:30:49Z</time>
      </trkpt>
      <trkpt lat="43.75451" lon="6.60535">
        <ele>1276.9</ele>
        <time>2013-08-25T12:31:06Z</time>
      </trkpt>
      <trkpt lat="43.75438" lon="6.60518">
        <ele>1276.45</ele>
        <time>2013-08-25T12:31:23Z</time>
      </trkpt>
      <trkpt lat="43.75424" lon="6.60502">
        <ele>1277.33</ele>
        <time>2013-08-25T12:31:37Z</time>
      </trkpt>
      <trkpt lat="43.75413" lon="6.60481">
        <ele>1277.61</ele>
        <time>2013-08-25T12:31:54Z</time>
      </trkpt>
      <trkpt lat="43.75399" lon="6.60463">
        <ele>1276.9</ele>
        <time>2013-08-25T12:32:09Z</time>
      </trkpt>
      <trkpt lat="43.75389" lon="6.60443">
        <ele>1276.48</ele>
        <time>2013-08-25T12:32:24Z</time>
      </trkpt>
      <trkpt lat="43.75377" lon="6.60423">
        <ele>1275.71</ele>
        <time>2013-08-25T12:32:40Z</time>
      </trkpt>
      <trkpt lat="43.75368" lon="6.60401">
        <ele>1274.73</ele>
        <time>2013-08-25T12:32:56Z</time>
      </trkpt>
      <trkpt lat="43.75356" lon="6.60382">
        <ele>1274.62</ele>
        <time>2013-08-25T12:33:09Z</time>
      </trkpt>
      <trkpt lat="43.75349" lon="6.60358">
        <ele>1273.88</ele>
        <time>2013-08-25T12:33:24Z</time>
      </trkpt>
      <trkpt lat="43.75339" lon="6.60337">
        <ele>1272.67</ele>
        <time>2013-08-25T12:33:44Z</time>
      </trkpt>
      <trkpt lat="43.75328" lon="6.60315">
        <ele>1271.4</ele>
        <time>2013-08-25T12:34:03Z</time>
      </trkpt>
      <trkpt lat="43.75319" lon="6.60293">
        <ele>1270.22</ele>
        <time>2013-08-25T12:34:18Z</time>
      </trkpt>
      <trkpt lat="43.75308" lon="6.60272">
        <ele>1270.46</ele>
        <time>2013-08-25T12:34:33Z</time>
      </trkpt>
      <trkpt lat="43.75296" lon="6.60253">
        <ele>1269.56</ele>
        <time>2013-08-25T12:34:48Z</time>
      </trkpt>
      <trkpt lat="43.75281" lon="6.60236">
        <ele>1268.78</ele>
        <time>2013-08-25T12:36:34Z</time>
      </trkpt>
      <trkpt lat="43.75269" lon="6.60216">
        <ele>1268.56</ele>
        <time>2013-08-25T12:36:50Z</time>
      </trkpt>
      <trkpt lat="43.75259" lon="6.60195">
        <ele>1268.25</ele>
        <time>2013-08-25T12:37:05Z</time>
      </trkpt>
      <trkpt lat="43.75252" lon="6.60172">
        <ele>1266.67</ele>
        <time>2013-08-25T12:37:20Z</time>
      </trkpt>
      <trkpt lat="43.75238" lon="6.60155">
        <ele>1266</ele>
        <time>2013-08-25T12:37:37Z</time>
      </trkpt>
      <trkpt lat="43.75226" lon="6.60135">
        <ele>1264.32</ele>
        <time>2013-08-25T12:37:55Z</time>
      </trkpt>
      <trkpt lat="43.75215" lon="6.60113">
        <ele>1263.14</ele>
        <time>2013-08-25T12:38:13Z</time>
      </trkpt>
      <trkpt lat="43.75206" lon="6.60091">
        <ele>1259.92</ele>
        <time>2013-08-25T12:41:37Z</time>
      </trkpt>
      <trkpt lat="43.75216" lon="6.60112">
        <ele>1262.75</ele>
        <time>2013-08-25T12:51:42Z</time>
      </trkpt>
      <trkpt lat="43.75229" lon="6.6013">
        <ele>1263.03</ele>
        <time>2013-08-25T12:52:15Z</time>
      </trkpt>
      <trkpt lat="43.75241" lon="6.6015">
        <ele>1263.82</ele>
        <time>2013-08-25T12:52:36Z</time>
      </trkpt>
      <trkpt lat="43.7525" lon="6.60172">
        <ele>1264.84</ele>
        <time>2013-08-25T12:52:56Z</time>
      </trkpt>
      <trkpt lat="43.7526" lon="6.60193">
        <ele>1265.12</ele>
        <time>2013-08-25T12:53:15Z</time>
      </trkpt>
      <trkpt lat="43.75272" lon="6.60212">
        <ele>1265.01</ele>
        <time>2013-08-25T12:53:36Z</time>
      </trkpt>
      <trkpt lat="43.75285" lon="6.6023">
        <ele>1266.6</ele>
        <time>2013-08-25T12:53:58Z</time>
      </trkpt>
      <trkpt lat="43.75297" lon="6.60251">
        <ele>1266.67</ele>
        <time>2013-08-25T12:54:23Z</time>
      </trkpt>
      <trkpt lat="43.75312" lon="6.60268">
        <ele>1265.88</ele>
        <time>2013-08-25T12:54:37Z</time>
      </trkpt>
      <trkpt lat="43.75321" lon="6.6029">
        <ele>1267.55</ele>
        <time>2013-08-25T12:54:56Z</time>
      </trkpt>
      <trkpt lat="43.75329" lon="6.60314">
        <ele>1269.5</ele>
        <time>2013-08-25T12:55:15Z</time>
      </trkpt>
      <trkpt lat="43.75333" lon="6.60339">
        <ele>1269.35</ele>
        <time>2013-08-25T12:55:37Z</time>
      </trkpt>
      <trkpt lat="43.75342" lon="6.60361">
        <ele>1267.3</ele>
        <time>2013-08-25T12:55:57Z</time>
      </trkpt>
      <trkpt lat="43.75355" lon="6.60379">
        <ele>1265.88</ele>
        <time>2013-08-25T12:56:11Z</time>
      </trkpt>
      <trkpt lat="43.75366" lon="6.60401">
        <ele>1264.75</ele>
        <time>2013-08-25T12:56:27Z</time>
      </trkpt>
      <trkpt lat="43.75375" lon="6.60422">
        <ele>1265.12</ele>
        <time>2013-08-25T12:56:43Z</time>
      </trkpt>
      <trkpt lat="43.75386" lon="6.60443">
        <ele>1267.49</ele>
        <time>2013-08-25T12:57:13Z</time>
      </trkpt>
      <trkpt lat="43.754" lon="6.60459">
        <ele>1270.8</ele>
        <time>2013-08-25T12:57:45Z</time>
      </trkpt>
      <trkpt lat="43.7541" lon="6.6048">
        <ele>1271.9</ele>
        <time>2013-08-25T12:58:00Z</time>
      </trkpt>
      <trkpt lat="43.75423" lon="6.60498">
        <ele>1272.48</ele>
        <time>2013-08-25T12:58:17Z</time>
      </trkpt>
      <trkpt lat="43.75437" lon="6.60517">
        <ele>1272.52</ele>
        <time>2013-08-25T12:58:33Z</time>
      </trkpt>
      <trkpt lat="43.75449" lon="6.60535">
        <ele>1273.07</ele>
        <time>2013-08-25T12:58:49Z</time>
      </trkpt>
      <trkpt lat="43.75465" lon="6.60549">
        <ele>1273.18</ele>
        <time>2013-08-25T12:59:06Z</time>
      </trkpt>
      <trkpt lat="43.75477" lon="6.60569">
        <ele>1272.47</ele>
        <time>2013-08-25T12:59:24Z</time>
      </trkpt>
      <trkpt lat="43.7549" lon="6.60588">
        <ele>1273.13</ele>
        <time>2013-08-25T12:59:41Z</time>
      </trkpt>
      <trkpt lat="43.75501" lon="6.60608">
        <ele>1273.6</ele>
        <time>2013-08-25T12:59:57Z</time>
      </trkpt>
      <trkpt lat="43.75511" lon="6.60631">
        <ele>1275.59</ele>
        <time>2013-08-25T13:00:14Z</time>
      </trkpt>
      <trkpt lat="43.75517" lon="6.60656">
        <ele>1276.5</ele>
        <time>2013-08-25T13:00:28Z</time>
      </trkpt>
      <trkpt lat="43.75525" lon="6.60679">
        <ele>1276.76</ele>
        <time>2013-08-25T13:00:47Z</time>
      </trkpt>
      <trkpt lat="43.7553" lon="6.60704">
        <ele>1276.51</ele>
        <time>2013-08-25T13:01:03Z</time>
      </trkpt>
      <trkpt lat="43.75534" lon="6.60728">
        <ele>1276.32</ele>
        <time>2013-08-25T13:01:19Z</time>
      </trkpt>
      <trkpt lat="43.75536" lon="6.60754">
        <ele>1276.15</ele>
        <time>2013-08-25T13:01:38Z</time>
      </trkpt>
      <trkpt lat="43.75542" lon="6.60778">
        <ele>1276.51</ele>
        <time>2013-08-25T13:01:56Z</time>
      </trkpt>
      <trkpt lat="43.75545" lon="6.60803">
        <ele>1278.86</ele>
        <time>2013-08-25T13:02:17Z</time>
      </trkpt>
      <trkpt lat="43.75552" lon="6.60827">
        <ele>1280.57</ele>
        <time>2013-08-25T13:02:36Z</time>
      </trkpt>
      <trkpt lat="43.75561" lon="6.60849">
        <ele>1282.15</ele>
        <time>2013-08-25T13:02:54Z</time>
      </trkpt>
      <trkpt lat="43.75567" lon="6.60873">
        <ele>1282.85</ele>
        <time>2013-08-25T13:03:10Z</time>
      </trkpt>
      <trkpt lat="43.75574" lon="6.60897">
        <ele>1282.38</ele>
        <time>2013-08-25T13:03:31Z</time>
      </trkpt>
      <trkpt lat="43.75581" lon="6.6092">
        <ele>1279.4</ele>
        <time>2013-08-25T13:03:49Z</time>
      </trkpt>
      <trkpt lat="43.75586" lon="6.60945">
        <ele>1277.73</ele>
        <time>2013-08-25T13:04:03Z</time>
      </trkpt>
      <trkpt lat="43.75593" lon="6.60969">
        <ele>1276.83</ele>
        <time>2013-08-25T13:04:20Z</time>
      </trkpt>
      <trkpt lat="43.75596" lon="6.60994">
        <ele>1276.06</ele>
        <time>2013-08-25T13:04:38Z</time>
      </trkpt>
      <trkpt lat="43.75608" lon="6.61014">
        <ele>1274.98</ele>
        <time>2013-08-25T13:04:53Z</time>
      </trkpt>
      <trkpt lat="43.75622" lon="6.6103">
        <ele>1274</ele>
        <time>2013-08-25T13:05:07Z</time>
      </trkpt>
      <trkpt lat="43.75633" lon="6.6105">
        <ele>1273.78</ele>
        <time>2013-08-25T13:05:24Z</time>
      </trkpt>
      <trkpt lat="43.75641" lon="6.61073">
        <ele>1273.94</ele>
        <time>2013-08-25T13:05:40Z</time>
      </trkpt>
      <trkpt lat="43.75648" lon="6.61097">
        <ele>1275.57</ele>
        <time>2013-08-25T13:05:59Z</time>
      </trkpt>
      <trkpt lat="43.75649" lon="6.61123">
        <ele>1277.17</ele>
        <time>2013-08-25T13:06:18Z</time>
      </trkpt>
      <trkpt lat="43.75653" lon="6.61148">
        <ele>1276.31</ele>
        <time>2013-08-25T13:06:36Z</time>
      </trkpt>
      <trkpt lat="43.75656" lon="6.61173">
        <ele>1275.89</ele>
        <time>2013-08-25T13:06:55Z</time>
      </trkpt>
      <trkpt lat="43.75662" lon="6.61197">
        <ele>1275.89</ele>
        <time>2013-08-25T13:07:10Z</time>
      </trkpt>
      <trkpt lat="43.75668" lon="6.61221">
        <ele>1276.03</ele>
        <time>2013-08-25T13:07:26Z</time>
      </trkpt>
      <trkpt lat="43.7567" lon="6.61246">
        <ele>1276.82</ele>
        <time>2013-08-25T13:07:48Z</time>
      </trkpt>
      <trkpt lat="43.75675" lon="6.61271">
        <ele>1280.5</ele>
        <time>2013-08-25T13:08:51Z</time>
      </trkpt>
      <trkpt lat="43.75679" lon="6.61296">
        <ele>1282.62</ele>
        <time>2013-08-25T13:09:34Z</time>
      </trkpt>
      <trkpt lat="43.75683" lon="6.61321">
        <ele>1280.61</ele>
        <time>2013-08-25T13:10:12Z</time>
      </trkpt>
      <trkpt lat="43.75687" lon="6.61345">
        <ele>1280.13</ele>
        <time>2013-08-25T13:10:30Z</time>
      </trkpt>
      <trkpt lat="43.75691" lon="6.6137">
        <ele>1278.73</ele>
        <time>2013-08-25T13:10:47Z</time>
      </trkpt>
      <trkpt lat="43.75698" lon="6.61393">
        <ele>1278.06</ele>
        <time>2013-08-25T13:11:01Z</time>
      </trkpt>
      <trkpt lat="43.75701" lon="6.61418">
        <ele>1278.52</ele>
        <time>2013-08-25T13:11:15Z</time>
      </trkpt>
      <trkpt lat="43.75705" lon="6.61444">
        <ele>1278.79</ele>
        <time>2013-08-25T13:11:34Z</time>
      </trkpt>
      <trkpt lat="43.75709" lon="6.61468">
        <ele>1279.88</ele>
        <time>2013-08-25T13:11:51Z</time>
      </trkpt>
      <trkpt lat="43.75712" lon="6.61493">
        <ele>1280.04</ele>
        <time>2013-08-25T13:12:09Z</time>
      </trkpt>
      <trkpt lat="43.75712" lon="6.61519">
        <ele>1279.78</ele>
        <time>2013-08-25T13:12:24Z</time>
      </trkpt>
      <trkpt lat="43.75718" lon="6.61544">
        <ele>1278.64</ele>
        <time>2013-08-25T13:12:40Z</time>
      </trkpt>
      <trkpt lat="43.75721" lon="6.6157">
        <ele>1278.8</ele>
        <time>2013-08-25T13:12:58Z</time>
      </trkpt>
      <trkpt lat="43.75726" lon="6.61595">
        <ele>1279.15</ele>
        <time>2013-08-25T13:13:14Z</time>
      </trkpt>
      <trkpt lat="43.7573" lon="6.61622">
        <ele>1279.28</ele>
        <time>2013-08-25T13:13:30Z</time>
      </trkpt>
      <trkpt lat="43.75735" lon="6.61646">
        <ele>1280.23</ele>
        <time>2013-08-25T13:13:47Z</time>
      </trkpt>
      <trkpt lat="43.75738" lon="6.61671">
        <ele>1281.02</ele>
        <time>2013-08-25T13:14:06Z</time>
      </trkpt>
      <trkpt lat="43.75742" lon="6.61696">
        <ele>1280.75</ele>
        <time>2013-08-25T13:14:22Z</time>
      </trkpt>
      <trkpt lat="43.75746" lon="6.61721">
        <ele>1280.53</ele>
        <time>2013-08-25T13:14:39Z</time>
      </trkpt>
      <trkpt lat="43.75751" lon="6.61745">
        <ele>1280.91</ele>
        <time>2013-08-25T13:15:01Z</time>
      </trkpt>
      <trkpt lat="43.75761" lon="6.61767">
        <ele>1281.19</ele>
        <time>2013-08-25T13:15:16Z</time>
      </trkpt>
      <trkpt lat="43.75763" lon="6.61792">
        <ele>1281.25</ele>
        <time>2013-08-25T13:15:30Z</time>
      </trkpt>
      <trkpt lat="43.75768" lon="6.61817">
        <ele>1282.84</ele>
        <time>2013-08-25T13:15:46Z</time>
      </trkpt>
      <trkpt lat="43.75766" lon="6.61843">
        <ele>1284.01</ele>
        <time>2013-08-25T13:16:04Z</time>
      </trkpt>
      <trkpt lat="43.7577" lon="6.61868">
        <ele>1284.75</ele>
        <time>2013-08-25T13:16:19Z</time>
      </trkpt>
      <trkpt lat="43.75775" lon="6.61892">
        <ele>1283.93</ele>
        <time>2013-08-25T13:16:39Z</time>
      </trkpt>
      <trkpt lat="43.75776" lon="6.61917">
        <ele>1284.41</ele>
        <time>2013-08-25T13:16:57Z</time>
      </trkpt>
      <trkpt lat="43.75786" lon="6.61938">
        <ele>1285.89</ele>
        <time>2013-08-25T13:17:29Z</time>
      </trkpt>
      <trkpt lat="43.75778" lon="6.6196">
        <ele>1285.55</ele>
        <time>2013-08-25T13:17:58Z</time>
      </trkpt>
      <trkpt lat="43.75768" lon="6.61981">
        <ele>1283.4</ele>
        <time>2013-08-25T13:18:30Z</time>
      </trkpt>
      <trkpt lat="43.7576" lon="6.62004">
        <ele>1282.65</ele>
        <time>2013-08-25T13:18:45Z</time>
      </trkpt>
      <trkpt lat="43.75742" lon="6.62014">
        <ele>1283.04</ele>
        <time>2013-08-25T13:20:23Z</time>
      </trkpt>
      <trkpt lat="43.75731" lon="6.62035">
        <ele>1280.75</ele>
        <time>2013-08-25T13:22:03Z</time>
      </trkpt>
      <trkpt lat="43.75715" lon="6.62049">
        <ele>1276.8</ele>
        <time>2013-08-25T13:22:27Z</time>
      </trkpt>
      <trkpt lat="43.75697" lon="6.62056">
        <ele>1273.61</ele>
        <time>2013-08-25T13:22:45Z</time>
      </trkpt>
      <trkpt lat="43.75679" lon="6.6206">
        <ele>1270.24</ele>
        <time>2013-08-25T13:23:05Z</time>
      </trkpt>
      <trkpt lat="43.75662" lon="6.62069">
        <ele>1267.97</ele>
        <time>2013-08-25T13:23:24Z</time>
      </trkpt>
      <trkpt lat="43.75643" lon="6.62075">
        <ele>1266.15</ele>
        <time>2013-08-25T13:23:45Z</time>
      </trkpt>
      <trkpt lat="43.75625" lon="6.62073">
        <ele>1262.69</ele>
        <time>2013-08-25T13:24:04Z</time>
      </trkpt>
      <trkpt lat="43.75609" lon="6.6206">
        <ele>1259.71</ele>
        <time>2013-08-25T13:24:27Z</time>
      </trkpt>
      <trkpt lat="43.75591" lon="6.62056">
        <ele>1257</ele>
        <time>2013-08-25T13:24:46Z</time>
      </trkpt>
      <trkpt lat="43.75572" lon="6.6206">
        <ele>1255.45</ele>
        <time>2013-08-25T13:25:04Z</time>
      </trkpt>
      <trkpt lat="43.75554" lon="6.62065">
        <ele>1248.65</ele>
        <time>2013-08-25T13:25:55Z</time>
      </trkpt>
      <trkpt lat="43.75536" lon="6.62061">
        <ele>1248.03</ele>
        <time>2013-08-25T13:26:12Z</time>
      </trkpt>
      <trkpt lat="43.75518" lon="6.62059">
        <ele>1247.56</ele>
        <time>2013-08-25T13:26:34Z</time>
      </trkpt>
      <trkpt lat="43.75498" lon="6.62057">
        <ele>1245.21</ele>
        <time>2013-08-25T13:26:53Z</time>
      </trkpt>
      <trkpt lat="43.7548" lon="6.62056">
        <ele>1243.85</ele>
        <time>2013-08-25T13:27:10Z</time>
      </trkpt>
      <trkpt lat="43.75462" lon="6.62058">
        <ele>1241.8</ele>
        <time>2013-08-25T13:27:28Z</time>
      </trkpt>
      <trkpt lat="43.75443" lon="6.62063">
        <ele>1239.29</ele>
        <time>2013-08-25T13:27:46Z</time>
      </trkpt>
      <trkpt lat="43.75425" lon="6.62068">
        <ele>1237.76</ele>
        <time>2013-08-25T13:28:04Z</time>
      </trkpt>
      <trkpt lat="43.75408" lon="6.62078">
        <ele>1235.78</ele>
        <time>2013-08-25T13:28:23Z</time>
      </trkpt>
      <trkpt lat="43.75391" lon="6.62086">
        <ele>1233.68</ele>
        <time>2013-08-25T13:28:40Z</time>
      </trkpt>
      <trkpt lat="43.75372" lon="6.62088">
        <ele>1229.94</ele>
        <time>2013-08-25T13:29:00Z</time>
      </trkpt>
      <trkpt lat="43.75353" lon="6.6209">
        <ele>1228.95</ele>
        <time>2013-08-25T13:29:19Z</time>
      </trkpt>
      <trkpt lat="43.75334" lon="6.6209">
        <ele>1228.3</ele>
        <time>2013-08-25T13:29:37Z</time>
      </trkpt>
      <trkpt lat="43.75317" lon="6.62098">
        <ele>1224.87</ele>
        <time>2013-08-25T13:29:55Z</time>
      </trkpt>
      <trkpt lat="43.75299" lon="6.62096">
        <ele>1220.29</ele>
        <time>2013-08-25T13:30:55Z</time>
      </trkpt>
      <trkpt lat="43.75283" lon="6.62083">
        <ele>1217.3</ele>
        <time>2013-08-25T13:31:17Z</time>
      </trkpt>
      <trkpt lat="43.75272" lon="6.62063">
        <ele>1212.26</ele>
        <time>2013-08-25T13:31:43Z</time>
      </trkpt>
      <trkpt lat="43.75251" lon="6.62065">
        <ele>1208.34</ele>
        <time>2013-08-25T13:32:10Z</time>
      </trkpt>
      <trkpt lat="43.75234" lon="6.62076">
        <ele>1207.8</ele>
        <time>2013-08-25T13:32:26Z</time>
      </trkpt>
      <trkpt lat="43.75217" lon="6.62085">
        <ele>1208.41</ele>
        <time>2013-08-25T13:32:44Z</time>
      </trkpt>
      <trkpt lat="43.75199" lon="6.62083">
        <ele>1209.74</ele>
        <time>2013-08-25T13:33:05Z</time>
      </trkpt>
      <trkpt lat="43.75182" lon="6.62071">
        <ele>1208.96</ele>
        <time>2013-08-25T13:33:27Z</time>
      </trkpt>
      <trkpt lat="43.75164" lon="6.62067">
        <ele>1207.17</ele>
        <time>2013-08-25T13:33:44Z</time>
      </trkpt>
      <trkpt lat="43.75146" lon="6.62061">
        <ele>1206.18</ele>
        <time>2013-08-25T13:34:03Z</time>
      </trkpt>
      <trkpt lat="43.75128" lon="6.62051">
        <ele>1205.57</ele>
        <time>2013-08-25T13:34:25Z</time>
      </trkpt>
      <trkpt lat="43.7511" lon="6.62051">
        <ele>1205.53</ele>
        <time>2013-08-25T13:34:42Z</time>
      </trkpt>
      <trkpt lat="43.75092" lon="6.62057">
        <ele>1203.62</ele>
        <time>2013-08-25T13:35:03Z</time>
      </trkpt>
      <trkpt lat="43.75073" lon="6.62057">
        <ele>1202.12</ele>
        <time>2013-08-25T13:35:31Z</time>
      </trkpt>
      <trkpt lat="43.75055" lon="6.62051">
        <ele>1196.12</ele>
        <time>2013-08-25T13:35:54Z</time>
      </trkpt>
      <trkpt lat="43.75036" lon="6.62056">
        <ele>1189.84</ele>
        <time>2013-08-25T13:36:12Z</time>
      </trkpt>
      <trkpt lat="43.75017" lon="6.62056">
        <ele>1182.87</ele>
        <time>2013-08-25T13:36:30Z</time>
      </trkpt>
      <trkpt lat="43.74999" lon="6.62053">
        <ele>1176.79</ele>
        <time>2013-08-25T13:36:55Z</time>
      </trkpt>
      <trkpt lat="43.74981" lon="6.62058">
        <ele>1176.87</ele>
        <time>2013-08-25T13:37:12Z</time>
      </trkpt>
      <trkpt lat="43.74962" lon="6.62058">
        <ele>1178.28</ele>
        <time>2013-08-25T13:37:30Z</time>
      </trkpt>
      <trkpt lat="43.74945" lon="6.62049">
        <ele>1178.52</ele>
        <time>2013-08-25T13:37:53Z</time>
      </trkpt>
      <trkpt lat="43.74926" lon="6.62049">
        <ele>1174.09</ele>
        <time>2013-08-25T13:38:13Z</time>
      </trkpt>
      <trkpt lat="43.74908" lon="6.62048">
        <ele>1173.14</ele>
        <time>2013-08-25T13:38:29Z</time>
      </trkpt>
      <trkpt lat="43.74889" lon="6.62048">
        <ele>1175.65</ele>
        <time>2013-08-25T13:38:53Z</time>
      </trkpt>
      <trkpt lat="43.74872" lon="6.6204">
        <ele>1173.67</ele>
        <time>2013-08-25T13:39:13Z</time>
      </trkpt>
      <trkpt lat="43.74878" lon="6.62063">
        <ele>1168.66</ele>
        <time>2013-08-25T13:40:07Z</time>
      </trkpt>
      <trkpt lat="43.74896" lon="6.62071">
        <ele>1168.37</ele>
        <time>2013-08-25T13:40:31Z</time>
      </trkpt>
      <trkpt lat="43.74914" lon="6.62078">
        <ele>1167.01</ele>
        <time>2013-08-25T13:40:49Z</time>
      </trkpt>
      <trkpt lat="43.74925" lon="6.62098">
        <ele>1165.35</ele>
        <time>2013-08-25T13:41:10Z</time>
      </trkpt>
      <trkpt lat="43.74931" lon="6.62122">
        <ele>1164.26</ele>
        <time>2013-08-25T13:41:30Z</time>
      </trkpt>
      <trkpt lat="43.7494" lon="6.62144">
        <ele>1163.38</ele>
        <time>2013-08-25T13:42:01Z</time>
      </trkpt>
      <trkpt lat="43.74957" lon="6.62153">
        <ele>1159.73</ele>
        <time>2013-08-25T13:42:22Z</time>
      </trkpt>
      <trkpt lat="43.74976" lon="6.62157">
        <ele>1156.5</ele>
        <time>2013-08-25T13:42:46Z</time>
      </trkpt>
      <trkpt lat="43.74993" lon="6.62167">
        <ele>1155.44</ele>
        <time>2013-08-25T13:43:01Z</time>
      </trkpt>
      <trkpt lat="43.75009" lon="6.62178">
        <ele>1153.48</ele>
        <time>2013-08-25T13:43:16Z</time>
      </trkpt>
      <trkpt lat="43.75026" lon="6.62186">
        <ele>1150.44</ele>
        <time>2013-08-25T13:43:35Z</time>
      </trkpt>
      <trkpt lat="43.75045" lon="6.6219">
        <ele>1147.44</ele>
        <time>2013-08-25T13:43:53Z</time>
      </trkpt>
      <trkpt lat="43.75062" lon="6.62196">
        <ele>1145.71</ele>
        <time>2013-08-25T13:44:15Z</time>
      </trkpt>
      <trkpt lat="43.7508" lon="6.62205">
        <ele>1144.43</ele>
        <time>2013-08-25T13:44:30Z</time>
      </trkpt>
      <trkpt lat="43.75097" lon="6.62214">
        <ele>1142.28</ele>
        <time>2013-08-25T13:44:48Z</time>
      </trkpt>
      <trkpt lat="43.75115" lon="6.62222">
        <ele>1140.21</ele>
        <time>2013-08-25T13:45:06Z</time>
      </trkpt>
      <trkpt lat="43.75132" lon="6.62231">
        <ele>1137.31</ele>
        <time>2013-08-25T13:45:26Z</time>
      </trkpt>
      <trkpt lat="43.75148" lon="6.62242">
        <ele>1134.81</ele>
        <time>2013-08-25T13:45:41Z</time>
      </trkpt>
      <trkpt lat="43.75164" lon="6.62254">
        <ele>1133.07</ele>
        <time>2013-08-25T13:46:02Z</time>
      </trkpt>
      <trkpt lat="43.7518" lon="6.62268">
        <ele>1131.69</ele>
        <time>2013-08-25T13:46:16Z</time>
      </trkpt>
      <trkpt lat="43.75193" lon="6.62285">
        <ele>1131.23</ele>
        <time>2013-08-25T13:46:36Z</time>
      </trkpt>
      <trkpt lat="43.752" lon="6.62309">
        <ele>1130.85</ele>
        <time>2013-08-25T13:46:58Z</time>
      </trkpt>
      <trkpt lat="43.7521" lon="6.62331">
        <ele>1130.14</ele>
        <time>2013-08-25T13:47:16Z</time>
      </trkpt>
      <trkpt lat="43.75225" lon="6.62349">
        <ele>1128.95</ele>
        <time>2013-08-25T13:47:38Z</time>
      </trkpt>
      <trkpt lat="43.75239" lon="6.62365">
        <ele>1126.28</ele>
        <time>2013-08-25T13:47:54Z</time>
      </trkpt>
      <trkpt lat="43.75256" lon="6.62375">
        <ele>1125.81</ele>
        <time>2013-08-25T13:48:10Z</time>
      </trkpt>
      <trkpt lat="43.75275" lon="6.62375">
        <ele>1125.1</ele>
        <time>2013-08-25T13:48:26Z</time>
      </trkpt>
      <trkpt lat="43.75293" lon="6.62371">
        <ele>1123.14</ele>
        <time>2013-08-25T13:48:44Z</time>
      </trkpt>
      <trkpt lat="43.7528" lon="6.62388">
        <ele>1118.85</ele>
        <time>2013-08-25T13:49:24Z</time>
      </trkpt>
      <trkpt lat="43.75263" lon="6.62398">
        <ele>1116.48</ele>
        <time>2013-08-25T13:49:41Z</time>
      </trkpt>
      <trkpt lat="43.75247" lon="6.6241">
        <ele>1114.23</ele>
        <time>2013-08-25T13:49:59Z</time>
      </trkpt>
      <trkpt lat="43.75229" lon="6.62416">
        <ele>1114.3</ele>
        <time>2013-08-25T13:50:14Z</time>
      </trkpt>
      <trkpt lat="43.75211" lon="6.62425">
        <ele>1113.25</ele>
        <time>2013-08-25T13:50:33Z</time>
      </trkpt>
      <trkpt lat="43.75193" lon="6.62432">
        <ele>1111.13</ele>
        <time>2013-08-25T13:50:51Z</time>
      </trkpt>
      <trkpt lat="43.75178" lon="6.62447">
        <ele>1107.24</ele>
        <time>2013-08-25T13:51:12Z</time>
      </trkpt>
      <trkpt lat="43.75172" lon="6.62472">
        <ele>1104.29</ele>
        <time>2013-08-25T13:51:27Z</time>
      </trkpt>
      <trkpt lat="43.75171" lon="6.62497">
        <ele>1101.37</ele>
        <time>2013-08-25T13:52:13Z</time>
      </trkpt>
      <trkpt lat="43.75181" lon="6.62519">
        <ele>1100.27</ele>
        <time>2013-08-25T13:52:32Z</time>
      </trkpt>
      <trkpt lat="43.7519" lon="6.62542">
        <ele>1099.67</ele>
        <time>2013-08-25T13:52:52Z</time>
      </trkpt>
      <trkpt lat="43.75198" lon="6.62566">
        <ele>1097.45</ele>
        <time>2013-08-25T13:53:08Z</time>
      </trkpt>
      <trkpt lat="43.75197" lon="6.62591">
        <ele>1095.59</ele>
        <time>2013-08-25T13:53:33Z</time>
      </trkpt>
      <trkpt lat="43.75183" lon="6.62608">
        <ele>1094.35</ele>
        <time>2013-08-25T13:53:56Z</time>
      </trkpt>
      <trkpt lat="43.75183" lon="6.62633">
        <ele>1092.94</ele>
        <time>2013-08-25T13:54:26Z</time>
      </trkpt>
      <trkpt lat="43.75202" lon="6.62628">
        <ele>1092.5</ele>
        <time>2013-08-25T13:54:52Z</time>
      </trkpt>
      <trkpt lat="43.75223" lon="6.62628">
        <ele>1092.21</ele>
        <time>2013-08-25T13:55:00Z</time>
      </trkpt>
      <trkpt lat="43.75203" lon="6.62636">
        <ele>1092.56</ele>
        <time>2013-08-25T13:55:26Z</time>
      </trkpt>
      <trkpt lat="43.75183" lon="6.62641">
        <ele>1093.29</ele>
        <time>2013-08-25T13:55:32Z</time>
      </trkpt>
      <trkpt lat="43.75172" lon="6.62661">
        <ele>1091.37</ele>
        <time>2013-08-25T13:57:11Z</time>
      </trkpt>
      <trkpt lat="43.75169" lon="6.62686">
        <ele>1090.36</ele>
        <time>2013-08-25T13:57:31Z</time>
      </trkpt>
      <trkpt lat="43.75166" lon="6.62711">
        <ele>1087.42</ele>
        <time>2013-08-25T13:57:51Z</time>
      </trkpt>
      <trkpt lat="43.75166" lon="6.62737">
        <ele>1085.55</ele>
        <time>2013-08-25T13:58:08Z</time>
      </trkpt>
      <trkpt lat="43.75166" lon="6.62763">
        <ele>1086.87</ele>
        <time>2013-08-25T13:58:18Z</time>
      </trkpt>
      <trkpt lat="43.75171" lon="6.62788">
        <ele>1086.14</ele>
        <time>2013-08-25T13:58:39Z</time>
      </trkpt>
      <trkpt lat="43.75164" lon="6.62813">
        <ele>1084.21</ele>
        <time>2013-08-25T13:59:00Z</time>
      </trkpt>
      <trkpt lat="43.75154" lon="6.62836">
        <ele>1081.97</ele>
        <time>2013-08-25T13:59:16Z</time>
      </trkpt>
      <trkpt lat="43.75141" lon="6.62854">
        <ele>1081.72</ele>
        <time>2013-08-25T13:59:35Z</time>
      </trkpt>
      <trkpt lat="43.75125" lon="6.62867">
        <ele>1082.54</ele>
        <time>2013-08-25T13:59:53Z</time>
      </trkpt>
      <trkpt lat="43.75107" lon="6.62871">
        <ele>1081.4</ele>
        <time>2013-08-25T14:00:12Z</time>
      </trkpt>
      <trkpt lat="43.7509" lon="6.62881">
        <ele>1079.47</ele>
        <time>2013-08-25T14:00:28Z</time>
      </trkpt>
      <trkpt lat="43.75073" lon="6.62894">
        <ele>1076.74</ele>
        <time>2013-08-25T14:00:46Z</time>
      </trkpt>
      <trkpt lat="43.75066" lon="6.62917">
        <ele>1074.5</ele>
        <time>2013-08-25T14:01:04Z</time>
      </trkpt>
      <trkpt lat="43.75055" lon="6.62938">
        <ele>1072.18</ele>
        <time>2013-08-25T14:01:25Z</time>
      </trkpt>
      <trkpt lat="43.75042" lon="6.62956">
        <ele>1073.01</ele>
        <time>2013-08-25T14:01:45Z</time>
      </trkpt>
      <trkpt lat="43.75029" lon="6.62973">
        <ele>1069.37</ele>
        <time>2013-08-25T14:02:14Z</time>
      </trkpt>
      <trkpt lat="43.75014" lon="6.62989">
        <ele>1063.01</ele>
        <time>2013-08-25T14:03:19Z</time>
      </trkpt>
      <trkpt lat="43.74997" lon="6.63001">
        <ele>1063.11</ele>
        <time>2013-08-25T14:03:46Z</time>
      </trkpt>
      <trkpt lat="43.74998" lon="6.63026">
        <ele>1063.66</ele>
        <time>2013-08-25T14:04:11Z</time>
      </trkpt>
      <trkpt lat="43.75014" lon="6.63042">
        <ele>1065.19</ele>
        <time>2013-08-25T14:04:36Z</time>
      </trkpt>
      <trkpt lat="43.75028" lon="6.63058">
        <ele>1065.34</ele>
        <time>2013-08-25T14:04:55Z</time>
      </trkpt>
      <trkpt lat="43.75011" lon="6.63066">
        <ele>1069.19</ele>
        <time>2013-08-25T14:06:08Z</time>
      </trkpt>
    </trkseg>
  </trk>
</gpx>